Carnation, WA (98014)

6:17 AM PST on December 27, 2014 (GMT -0800)
City of Carnation | Change Station
CLOSE
Current Station
Personal Weather Station
Location: Carnation, WA
Elevation: 85 ft
Nearby Weather Stations

Elev 85 ft 47.64 °N, 121.91 °W | Updated 1 second ago

Rain
Rain
45.3 °F
Feels Like 45 °F
N
0.0
Wind Variable Wind from East
Gusts 0.0 mph

Today
High -- | Low -- °F
--% Chance of Precip.
Yesterday
High -- | Low -- °F
Precip. -- in
7:55 AM 4:22 PM
Waxing Crescent, 37% visible
Pressure 30.21 in
Visibility 8.0 miles
Clouds Overcast 2000 ft
Windchill 45 °F
Dew Point 45 °F
Humidity 98%
Rainfall 0.17 in
Snow Depth Not available.
UV 0.0 out of 12
Pollen .50 out of 12
Air Quality Not available.
Flu Activity Not available.
METAR KRNT 271353Z AUTO 15005KT 8SM -RA OVC020 04/04 A3019 RMK AO2 SLP229 P0003 T00440039

More Conditions Fewer Conditions

Pressure 30.21 in
Visibility 8.0 miles
Clouds Overcast 2000 ft
Windchill 45 °F
Dew Point 45 °F
Humidity 98%
Rainfall 0.17 in
Snow Depth Not available.
UV 0.0 out of 12
Pollen .50 out of 12
Air Quality Not available.
Flu Activity Not available.
METAR KRNT 271353Z AUTO 15005KT 8SM -RA OVC020 04/04 A3019 RMK AO2 SLP229 P0003 T00440039

More Conditions Fewer Conditions

10-Day Weather Forecast

Almanac

Astronomy

Dec. 27, 2014 Rise Set
Actual Time
Civil Twilight
Nautical Twilight
Astronomical Twilight
Moon
Length of Visible Light
Length of Day
Tomorrow will be .
, % of the Moon is Illuminated

Today's Extremes

State Highs State Lows

Community

WunderPhotos

Upload Photos

1,780,909 photos uploaded!

WunderBlogs® & News

Nearby

Air Quality

  Air Quality AQ Index Pollutant
Not available.

Snow Depth

Station Depth Elevation

Earthquake Activity

City Distance Mag. Time & Date
Minimum magnitude displayed is 2.5.

Coastal Water Temperatures

Place Temperature

Nearby Weather Stations